Time;durP1;ratioP1;P1;durP2;ratioP2;P2;SDS_P1;SDS_P2;PMS_P1;PMS_P2;Temp;Humidity;BMP_temperature;BMP_pressure;BME280_temperature;BME280_humidity;BME280_pressure;Samples;Min_cycle;Max_cycle;Signal;HPM_P1;HPM_P2
2023/03/20 00:00:09;;;;;;;0.30;0.30;;;8.00;99.90;;;;;;5037189;28;21893;-76
2023/03/20 00:02:37;;;;;;;0.27;0.27;;;7.90;99.90;;;;;;5043772;28;20661;-76
2023/03/20 00:05:14;;;;;;;0.30;0.30;;;8.00;99.90;;;;;;5049421;28;20947;-76
2023/03/20 00:07:39;;;;;;;0.30;0.30;;;7.90;99.90;;;;;;5038962;28;20485;-76
2023/03/20 00:10:05;;;;;;;0.30;0.30;;;7.90;99.90;;;;;;5033503;28;20477;-76
2023/03/20 00:12:31;;;;;;;0.30;0.30;;;8.00;99.90;;;;;;5040694;28;20202;-77
2023/03/20 00:14:59;;;;;;;0.30;0.30;;;7.90;99.90;;;;;;5043002;28;20434;-77
2023/03/20 00:17:24;;;;;;;0.30;0.30;;;7.70;99.90;;;;;;5040544;28;20655;-76
2023/03/20 00:19:50;;;;;;;0.20;0.20;;;7.70;99.90;;;;;;5061465;28;20476;-77
2023/03/20 00:22:15;;;;;;;0.30;0.30;;;7.80;99.90;;;;;;5033502;28;20198;-76
2023/03/20 00:24:41;;;;;;;0.30;0.30;;;7.70;99.90;;;;;;5051009;28;20179;-76
2023/03/20 00:27:13;;;;;;;0.20;0.20;;;7.70;99.90;;;;;;5047260;28;20197;-76
2023/03/20 00:29:38;;;;;;;0.30;0.30;;;7.60;99.90;;;;;;5043177;28;20218;-76
2023/03/20 00:32:08;;;;;;;0.30;0.30;;;7.50;99.90;;;;;;5039089;28;20984;-76
2023/03/20 00:34:34;;;;;;;0.30;0.30;;;7.50;99.90;;;;;;5038508;28;20292;-76
2023/03/20 00:37:00;;;;;;;0.30;0.30;;;7.40;99.90;;;;;;5039006;28;21591;-77
2023/03/20 00:39:26;;;;;;;0.30;0.30;;;7.40;99.90;;;;;;5038707;28;20216;-76
2023/03/20 00:42:01;;;;;;;0.30;0.30;;;7.40;99.90;;;;;;5045864;28;20195;-76
2023/03/20 00:44:48;;;;;;;0.30;0.30;;;7.40;99.90;;;;;;5035243;28;20441;-76
2023/03/20 00:47:23;;;;;;;0.30;0.30;;;7.30;99.90;;;;;;5043001;28;20436;-77
2023/03/20 00:49:50;;;;;;;0.30;0.30;;;7.30;99.90;;;;;;5048095;28;20456;-77
2023/03/20 00:52:17;;;;;;;0.30;0.30;;;7.30;99.90;;;;;;5047775;28;20937;-77
2023/03/20 00:54:43;;;;;;;0.30;0.30;;;7.40;99.90;;;;;;5049485;28;20433;-76
2023/03/20 00:57:16;;;;;;;0.30;0.30;;;7.40;99.90;;;;;;5036931;28;20527;-76
2023/03/20 00:59:57;;;;;;;0.30;0.30;;;7.30;99.90;;;;;;5036801;28;20226;-79
2023/03/20 01:02:27;;;;;;;0.30;0.30;;;7.20;99.90;;;;;;5039626;28;20438;-79
2023/03/20 01:04:53;;;;;;;0.30;0.30;;;7.10;99.90;;;;;;5034415;28;20540;-76
2023/03/20 01:07:21;;;;;;;0.30;0.30;;;7.10;99.90;;;;;;5046367;28;20464;-79
2023/03/20 01:09:46;;;;;;;0.30;0.30;;;7.10;99.90;;;;;;5043146;28;21010;-79
2023/03/20 01:12:13;;;;;;;0.30;0.30;;;7.10;99.90;;;;;;5049520;28;20433;-76
2023/03/20 01:14:39;;;;;;;0.30;0.30;;;7.10;99.90;;;;;;5049929;28;20691;-76
2023/03/20 01:17:07;;;;;;;0.30;0.30;;;7.10;99.90;;;;;;5039409;28;20477;-76
2023/03/20 01:19:33;;;;;;;0.40;0.40;;;7.20;99.90;;;;;;5033109;28;20281;-79
2023/03/20 01:21:58;;;;;;;0.30;0.30;;;7.00;99.90;;;;;;5048255;28;20453;-79
2023/03/20 01:24:24;;;;;;;0.30;0.30;;;6.90;99.90;;;;;;5037931;28;20560;-78
2023/03/20 01:26:51;;;;;;;0.20;0.20;;;6.90;99.90;;;;;;5043486;28;20558;-79
2023/03/20 01:29:20;;;;;;;0.27;0.27;;;6.90;99.90;;;;;;5044852;28;20256;-76
2023/03/20 01:31:46;;;;;;;0.30;0.30;;;6.80;99.90;;;;;;5054497;28;20519;-79
2023/03/20 01:34:11;;;;;;;0.30;0.30;;;6.80;99.90;;;;;;5031805;28;20442;-77
2023/03/20 01:36:38;;;;;;;0.30;0.30;;;6.90;99.90;;;;;;5044810;28;21252;-78
2023/03/20 01:39:04;;;;;;;0.30;0.30;;;6.80;99.90;;;;;;5037592;28;20270;-79
2023/03/20 01:41:31;;;;;;;0.30;0.30;;;6.70;99.90;;;;;;5040009;28;20586;-79
2023/03/20 01:44:00;;;;;;;0.20;0.20;;;6.80;99.90;;;;;;5044773;28;20464;-79
2023/03/20 01:46:28;;;;;;;0.30;0.30;;;6.80;99.90;;;;;;5038156;28;20968;-79
2023/03/20 01:49:05;;;;;;;0.30;0.30;;;6.70;99.90;;;;;;5038143;28;20450;-79
2023/03/20 01:51:31;;;;;;;0.30;0.30;;;6.70;99.90;;;;;;5028146;28;20973;-79
2023/03/20 01:54:19;;;;;;;0.30;0.30;;;6.70;99.90;;;;;;5046583;28;20895;-77
2023/03/20 01:56:52;;;;;;;0.30;0.30;;;6.70;99.90;;;;;;5046997;28;20501;-76
2023/03/20 01:59:43;;;;;;;0.23;0.23;;;6.60;99.90;;;;;;5047318;28;20445;-79
2023/03/20 02:02:09;;;;;;;0.30;0.30;;;6.60;99.90;;;;;;5048468;28;20539;-79
2023/03/20 02:04:41;;;;;;;0.30;0.30;;;6.70;99.90;;;;;;5049972;28;20397;-79
2023/03/20 02:07:09;;;;;;;0.30;0.30;;;6.60;99.90;;;;;;5046890;28;20449;-78
2023/03/20 02:09:35;;;;;;;0.30;0.30;;;6.60;99.90;;;;;;5028637;28;20434;-79
2023/03/20 02:12:02;;;;;;;0.30;0.30;;;6.70;99.90;;;;;;5044493;28;20560;-79
2023/03/20 02:14:29;;;;;;;0.30;0.30;;;6.70;99.90;;;;;;5047430;28;20678;-79
2023/03/20 02:16:54;;;;;;;0.30;0.30;;;6.70;99.90;;;;;;5033453;28;20454;-79
2023/03/20 02:19:37;;;;;;;0.30;0.30;;;6.60;99.90;;;;;;5049533;28;20481;-79
2023/03/20 02:22:46;;;;;;;0.30;0.30;;;6.70;99.90;;;;;;5045392;28;20701;-79
2023/03/20 02:25:44;;;;;;;0.30;0.30;;;6.70;99.90;;;;;;5050555;28;20429;-79
2023/03/20 02:28:19;;;;;;;0.30;0.30;;;6.70;99.90;;;;;;5047021;28;20937;-77
2023/03/20 02:31:13;;;;;;;0.30;0.30;;;6.70;99.90;;;;;;5054016;28;20480;-77
2023/03/20 02:34:10;;;;;;;0.30;0.30;;;6.70;99.90;;;;;;5067280;28;20448;-76
2023/03/20 02:36:56;;;;;;;0.30;0.30;;;6.60;99.90;;;;;;5048075;28;20441;-77
2023/03/20 02:39:38;;;;;;;0.30;0.30;;;6.60;99.90;;;;;;5040936;28;20499;-76
2023/03/20 02:42:19;;;;;;;0.30;0.30;;;6.60;99.90;;;;;;5049700;28;20451;-77
2023/03/20 02:44:56;;;;;;;0.30;0.30;;;6.60;99.90;;;;;;5048279;28;20444;-76
2023/03/20 02:47:29;;;;;;;0.30;0.30;;;6.60;99.90;;;;;;5052174;28;20456;-76
2023/03/20 02:50:00;;;;;;;0.30;0.30;;;6.70;99.90;;;;;;5049179;28;20847;-77
2023/03/20 02:52:40;;;;;;;0.30;0.30;;;6.60;99.90;;;;;;5043403;28;20499;-76
2023/03/20 02:55:40;;;;;;;0.30;0.30;;;6.60;99.90;;;;;;5050409;28;21345;-76
2023/03/20 02:58:23;;;;;;;0.30;0.30;;;6.60;99.90;;;;;;5049292;28;20452;-79
2023/03/20 03:01:12;;;;;;;0.30;0.30;;;6.70;99.90;;;;;;5051085;28;20527;-77
2023/03/20 03:03:46;;;;;;;0.30;0.30;;;6.70;99.90;;;;;;5049619;28;20473;-76
2023/03/20 03:06:20;;;;;;;0.30;0.30;;;6.60;99.90;;;;;;5044382;28;20442;-76
2023/03/20 03:08:51;;;;;;;0.30;0.30;;;6.60;99.90;;;;;;5040040;28;20433;-79
2023/03/20 03:11:17;;;;;;;0.30;0.30;;;6.60;99.90;;;;;;5052377;28;20453;-78
2023/03/20 03:13:52;;;;;;;0.30;0.30;;;6.60;99.90;;;;;;5046704;28;20845;-78
2023/03/20 03:16:39;;;;;;;0.30;0.30;;;6.70;99.90;;;;;;5042268;28;20531;-79
2023/03/20 03:19:15;;;;;;;0.30;0.30;;;6.70;99.90;;;;;;5041172;28;20607;-79
2023/03/20 03:21:40;;;;;;;0.30;0.30;;;6.80;99.90;;;;;;5048542;28;20484;-79
2023/03/20 03:24:26;;;;;;;0.30;0.30;;;6.60;99.90;;;;;;5046110;28;20456;-78
2023/03/20 03:26:52;;;;;;;0.30;0.30;;;6.60;99.90;;;;;;5047535;28;20202;-79
2023/03/20 03:29:18;;;;;;;0.30;0.30;;;6.60;99.90;;;;;;5050864;28;20456;-79
2023/03/20 03:31:45;;;;;;;0.30;0.30;;;6.50;99.90;;;;;;5050350;28;20928;-79
2023/03/20 03:34:15;;;;;;;0.30;0.30;;;6.60;99.90;;;;;;5049911;28;20445;-79
2023/03/20 03:37:13;;;;;;;0.30;0.30;;;6.60;99.90;;;;;;5048694;28;20444;-78
2023/03/20 03:39:46;;;;;;;0.40;0.40;;;6.60;99.90;;;;;;5051809;28;20959;-78
2023/03/20 03:42:34;;;;;;;0.30;0.30;;;6.60;99.90;;;;;;5048353;28;20472;-78
2023/03/20 03:45:16;;;;;;;0.30;0.30;;;6.60;99.90;;;;;;5041858;28;20439;-79
2023/03/20 03:48:13;;;;;;;0.30;0.30;;;6.60;99.90;;;;;;5050366;28;20476;-79
2023/03/20 03:50:47;;;;;;;0.30;0.30;;;6.50;99.90;;;;;;5027862;28;20532;-76
2023/03/20 03:53:16;;;;;;;0.30;0.30;;;6.60;99.90;;;;;;5049879;28;20459;-77
2023/03/20 03:55:57;;;;;;;0.20;0.20;;;6.50;99.90;;;;;;5064861;28;20444;-76
2023/03/20 03:58:33;;;;;;;0.30;0.30;;;6.60;99.90;;;;;;5036928;28;20587;-76
2023/03/20 04:01:02;;;;;;;0.40;0.40;;;6.70;99.90;;;;;;5050483;28;20484;-76
2023/03/20 04:03:31;;;;;;;0.30;0.30;;;6.50;99.90;;;;;;5049596;28;20960;-76
2023/03/20 04:05:59;;;;;;;0.30;0.30;;;6.60;99.90;;;;;;5050356;28;20448;-78
2023/03/20 04:08:24;;;;;;;0.30;0.30;;;6.60;99.90;;;;;;5045816;28;20946;-76
2023/03/20 04:10:50;;;;;;;0.30;0.30;;;6.60;99.90;;;;;;5045662;28;20506;-76
2023/03/20 04:13:16;;;;;;;0.27;0.27;;;6.60;99.90;;;;;;5049808;28;20241;-76
2023/03/20 04:15:42;;;;;;;0.30;0.30;;;6.60;99.90;;;;;;5050786;28;20433;-76
2023/03/20 04:18:18;;;;;;;0.30;0.30;;;6.50;99.90;;;;;;5048719;28;20246;-76
2023/03/20 04:20:46;;;;;;;0.20;0.20;;;6.60;99.90;;;;;;5050127;28;20538;-76
2023/03/20 04:23:13;;;;;;;0.20;0.20;;;6.50;99.90;;;;;;5052100;28;20437;-79
2023/03/20 04:25:38;;;;;;;0.30;0.30;;;6.50;99.90;;;;;;5048706;28;20954;-76
2023/03/20 04:28:04;;;;;;;0.30;0.30;;;6.50;99.90;;;;;;5040984;28;20445;-76
2023/03/20 04:30:30;;;;;;;0.30;0.30;;;6.40;99.90;;;;;;5039320;28;20943;-76
2023/03/20 04:32:56;;;;;;;0.30;0.30;;;6.40;99.90;;;;;;5030778;28;20433;-76
2023/03/20 04:35:21;;;;;;;0.30;0.30;;;6.50;99.90;;;;;;5047642;28;20190;-76
2023/03/20 04:37:47;;;;;;;0.40;0.40;;;6.40;99.90;;;;;;5038648;28;20522;-76
2023/03/20 04:40:12;;;;;;;0.30;0.30;;;6.40;99.90;;;;;;5035837;28;20275;-79
2023/03/20 04:42:38;;;;;;;0.20;0.20;;;6.30;99.90;;;;;;5048478;28;20186;-79
2023/03/20 04:45:05;;;;;;;0.30;0.30;;;6.40;99.90;;;;;;5046862;28;20190;-78
2023/03/20 04:47:31;;;;;;;0.30;0.30;;;6.40;99.90;;;;;;5050748;28;20282;-76
2023/03/20 04:49:56;;;;;;;0.30;0.30;;;6.30;99.90;;;;;;5050020;28;20528;-78
2023/03/20 04:52:22;;;;;;;0.30;0.30;;;6.40;99.90;;;;;;5047515;28;20183;-76
2023/03/20 04:54:47;;;;;;;0.20;0.20;;;6.40;99.90;;;;;;5049954;28;20182;-78
2023/03/20 04:57:13;;;;;;;0.30;0.30;;;6.40;99.90;;;;;;5047003;28;20979;-78
2023/03/20 04:59:38;;;;;;;0.30;0.30;;;6.40;99.90;;;;;;5048416;28;20206;-78
2023/03/20 05:02:04;;;;;;;0.30;0.30;;;6.50;99.90;;;;;;5043356;28;20202;-79
2023/03/20 05:04:30;;;;;;;0.30;0.30;;;6.40;99.90;;;;;;5040731;28;20182;-79
2023/03/20 05:06:55;;;;;;;0.30;0.30;;;6.40;99.90;;;;;;5044766;28;20784;-79
2023/03/20 05:09:21;;;;;;;0.30;0.30;;;6.50;99.90;;;;;;5034850;28;20231;-79
2023/03/20 05:11:46;;;;;;;0.30;0.30;;;6.40;99.90;;;;;;5047479;28;20193;-78
2023/03/20 05:14:12;;;;;;;0.30;0.30;;;6.50;99.90;;;;;;5063404;28;20563;-78
2023/03/20 05:16:38;;;;;;;0.30;0.30;;;6.40;99.90;;;;;;5040666;28;20674;-78
2023/03/20 05:19:04;;;;;;;0.30;0.30;;;6.50;99.90;;;;;;5044888;28;20225;-79
2023/03/20 05:21:29;;;;;;;0.30;0.30;;;6.50;99.90;;;;;;5045676;28;20484;-78
2023/03/20 05:23:55;;;;;;;0.30;0.30;;;6.50;99.90;;;;;;5046881;28;20449;-75
2023/03/20 05:26:20;;;;;;;0.30;0.30;;;6.50;99.90;;;;;;5037790;28;20731;-76
2023/03/20 05:28:46;;;;;;;0.30;0.30;;;6.40;99.90;;;;;;5042827;28;20906;-79
2023/03/20 05:31:12;;;;;;;0.30;0.30;;;6.50;99.90;;;;;;5043379;28;20201;-79
2023/03/20 05:33:37;;;;;;;0.30;0.30;;;6.50;99.90;;;;;;5047034;28;20190;-78
2023/03/20 05:36:04;;;;;;;0.37;0.37;;;6.50;99.90;;;;;;5048891;28;20534;-79
2023/03/20 05:38:30;;;;;;;0.30;0.30;;;6.50;99.90;;;;;;5046107;28;20445;-76
2023/03/20 05:40:57;;;;;;;0.30;0.30;;;6.60;99.90;;;;;;5047499;28;21070;-76
2023/03/20 05:43:22;;;;;;;0.30;0.30;;;6.50;99.90;;;;;;5038395;28;20230;-79
2023/03/20 05:45:48;;;;;;;0.30;0.30;;;6.60;99.90;;;;;;5030467;28;20457;-76
2023/03/20 05:48:14;;;;;;;0.30;0.30;;;6.60;99.90;;;;;;5046162;28;20185;-77
2023/03/20 05:50:40;;;;;;;0.30;0.30;;;6.50;99.90;;;;;;5044163;28;20190;-79
2023/03/20 05:53:06;;;;;;;0.30;0.30;;;6.50;99.90;;;;;;5040284;28;20437;-78
2023/03/20 05:55:32;;;;;;;0.30;0.30;;;6.50;99.90;;;;;;5044294;28;20655;-76
2023/03/20 05:57:57;;;;;;;0.30;0.30;;;6.60;99.90;;;;;;5045796;28;21009;-76
2023/03/20 06:00:23;;;;;;;0.30;0.30;;;6.50;99.90;;;;;;5053504;28;20218;-76
2023/03/20 06:02:49;;;;;;;0.30;0.30;;;6.60;99.90;;;;;;5043686;28;20182;-78
2023/03/20 06:05:14;;;;;;;0.30;0.30;;;6.50;99.90;;;;;;5044476;28;20607;-78
2023/03/20 06:07:40;;;;;;;0.30;0.30;;;6.60;99.90;;;;;;5059327;28;20187;-78
2023/03/20 06:10:06;;;;;;;0.30;0.30;;;6.70;99.90;;;;;;5051892;28;20706;-78
2023/03/20 06:12:31;;;;;;;0.30;0.30;;;6.60;99.90;;;;;;5046401;28;20198;-78
2023/03/20 06:14:57;;;;;;;0.30;0.30;;;6.60;99.90;;;;;;5034760;28;20825;-76
2023/03/20 06:17:22;;;;;;;0.30;0.30;;;6.60;99.90;;;;;;5035358;28;20180;-76
2023/03/20 06:19:48;;;;;;;0.30;0.30;;;6.60;99.90;;;;;;5049050;28;21012;-76
2023/03/20 06:22:13;;;;;;;0.30;0.30;;;6.60;99.90;;;;;;5049695;28;20202;-79
2023/03/20 06:24:40;;;;;;;0.30;0.30;;;6.60;99.90;;;;;;5037079;28;20214;-79
2023/03/20 06:27:05;;;;;;;0.30;0.30;;;6.60;99.90;;;;;;5056682;28;20186;-79
2023/03/20 06:29:31;;;;;;;0.30;0.30;;;6.70;99.90;;;;;;5039315;28;20435;-78
2023/03/20 06:31:56;;;;;;;0.30;0.30;;;6.70;99.90;;;;;;5046674;28;20194;-78
2023/03/20 06:34:22;;;;;;;0.30;0.30;;;6.60;99.90;;;;;;5044380;28;20179;-78
2023/03/20 06:36:47;;;;;;;0.30;0.30;;;6.70;99.90;;;;;;5044983;28;20193;-78
2023/03/20 06:39:13;;;;;;;0.30;0.30;;;6.70;99.90;;;;;;5046625;28;20196;-78
2023/03/20 06:41:38;;;;;;;0.30;0.30;;;6.70;99.90;;;;;;5041781;28;20330;-78
2023/03/20 06:44:04;;;;;;;0.27;0.27;;;6.60;99.90;;;;;;5039461;28;20226;-78
2023/03/20 06:46:30;;;;;;;0.30;0.30;;;6.70;99.90;;;;;;5042488;28;20187;-78
2023/03/20 06:48:55;;;;;;;0.30;0.30;;;6.70;99.90;;;;;;5051830;28;20179;-78
2023/03/20 06:51:21;;;;;;;0.30;0.30;;;6.70;99.90;;;;;;5050450;28;20202;-78
2023/03/20 06:53:46;;;;;;;0.30;0.30;;;6.70;99.90;;;;;;5040656;28;20241;-77
2023/03/20 06:56:12;;;;;;;0.30;0.30;;;6.70;99.90;;;;;;5039670;28;20177;-77
2023/03/20 06:58:38;;;;;;;0.30;0.30;;;6.70;99.90;;;;;;5046833;28;20655;-78
2023/03/20 07:01:12;;;;;;;0.30;0.30;;;6.80;99.90;;;;;;5043797;28;20214;-78
2023/03/20 07:03:37;;;;;;;0.30;0.30;;;6.80;99.90;;;;;;5046742;28;20437;-78
2023/03/20 07:06:03;;;;;;;0.23;0.23;;;6.90;99.90;;;;;;5049320;28;20446;-78
2023/03/20 07:08:29;;;;;;;0.20;0.20;;;6.90;99.90;;;;;;5031831;28;20631;-78
2023/03/20 07:10:54;;;;;;;0.30;0.30;;;6.90;99.90;;;;;;5040684;28;20814;-78
2023/03/20 07:13:20;;;;;;;0.30;0.30;;;6.90;99.90;;;;;;5042008;28;20924;-78
2023/03/20 07:15:45;;;;;;;0.30;0.30;;;6.90;99.90;;;;;;5048300;28;20214;-78
2023/03/20 07:18:11;;;;;;;0.30;0.30;;;6.80;99.90;;;;;;5043613;28;20233;-78
2023/03/20 07:20:37;;;;;;;0.30;0.30;;;6.90;99.90;;;;;;5079509;28;20219;-78
2023/03/20 07:23:02;;;;;;;0.30;0.30;;;6.90;99.90;;;;;;5046395;28;20270;-78
2023/03/20 07:25:28;;;;;;;0.30;0.30;;;7.00;99.90;;;;;;5040961;28;20237;-78
2023/03/20 07:27:54;;;;;;;0.30;0.30;;;7.00;99.90;;;;;;5039771;28;20631;-78
2023/03/20 07:30:20;;;;;;;0.30;0.30;;;6.90;99.90;;;;;;5042032;28;20187;-78
2023/03/20 07:32:46;;;;;;;0.30;0.30;;;7.00;99.90;;;;;;5038813;28;20194;-78
2023/03/20 07:35:12;;;;;;;0.30;0.30;;;7.00;99.90;;;;;;5037621;28;20189;-78
2023/03/20 07:37:38;;;;;;;0.30;0.30;;;7.10;99.90;;;;;;5050899;28;20536;-79
2023/03/20 07:40:04;;;;;;;0.30;0.30;;;7.10;99.90;;;;;;5048284;28;20203;-79
2023/03/20 07:42:30;;;;;;;0.30;0.30;;;7.00;99.90;;;;;;5039494;28;20183;-79
2023/03/20 07:44:55;;;;;;;0.30;0.30;;;6.90;99.90;;;;;;5048754;28;20476;-79
2023/03/20 07:47:21;;;;;;;0.30;0.30;;;6.90;99.90;;;;;;5047144;28;20516;-79
2023/03/20 07:49:46;;;;;;;0.20;0.20;;;7.00;99.90;;;;;;5044387;28;20732;-77
2023/03/20 07:52:12;;;;;;;0.30;0.30;;;7.20;99.90;;;;;;5034032;28;20187;-78
2023/03/20 07:54:37;;;;;;;0.30;0.30;;;7.10;99.90;;;;;;5037151;28;20233;-78
2023/03/20 07:57:04;;;;;;;0.30;0.30;;;7.20;99.90;;;;;;5050143;28;20187;-79
2023/03/20 07:59:30;;;;;;;0.30;0.30;;;7.20;99.90;;;;;;5047516;28;20187;-79
2023/03/20 08:01:56;;;;;;;0.30;0.30;;;7.20;99.90;;;;;;5045088;28;20537;-79
2023/03/20 08:04:21;;;;;;;0.30;0.30;;;7.20;99.90;;;;;;5042370;28;20439;-78
2023/03/20 08:06:48;;;;;;;0.30;0.30;;;7.20;99.90;;;;;;5046341;28;20186;-79
2023/03/20 08:09:14;;;;;;;0.20;0.20;;;7.20;99.90;;;;;;5077637;28;20438;-79
2023/03/20 08:11:39;;;;;;;0.30;0.30;;;7.20;99.90;;;;;;5049869;28;20445;-78
2023/03/20 08:14:05;;;;;;;0.30;0.30;;;7.30;99.90;;;;;;5040074;28;20513;-79
2023/03/20 08:16:30;;;;;;;0.30;0.30;;;7.30;99.90;;;;;;5054429;28;20204;-79
2023/03/20 08:19:00;;;;;;;0.30;0.30;;;7.30;99.90;;;;;;5040830;28;20242;-79
2023/03/20 08:21:27;;;;;;;0.20;0.20;;;7.30;99.90;;;;;;5033476;28;20219;-79
2023/03/20 08:23:53;;;;;;;0.20;0.20;;;7.40;99.90;;;;;;5045978;28;20467;-79
2023/03/20 08:26:19;;;;;;;0.30;0.30;;;7.40;99.90;;;;;;5042404;28;20562;-78
2023/03/20 08:28:44;;;;;;;0.30;0.30;;;7.50;99.90;;;;;;5034819;28;20524;-79
2023/03/20 08:31:10;;;;;;;0.30;0.30;;;7.40;99.90;;;;;;5046454;28;20201;-79
2023/03/20 08:33:36;;;;;;;0.30;0.30;;;7.50;99.90;;;;;;5045581;28;20187;-78
2023/03/20 08:36:01;;;;;;;0.30;0.30;;;7.40;99.90;;;;;;5074492;28;20884;-78
2023/03/20 08:38:27;;;;;;;0.20;0.20;;;7.40;99.90;;;;;;5045472;28;20536;-78
2023/03/20 08:40:53;;;;;;;0.30;0.30;;;7.40;99.90;;;;;;5043998;28;20226;-78
2023/03/20 08:43:19;;;;;;;0.30;0.30;;;7.40;99.90;;;;;;5041539;28;20182;-79
2023/03/20 08:45:44;;;;;;;0.30;0.30;;;7.40;99.90;;;;;;5033609;28;20541;-78
2023/03/20 08:48:10;;;;;;;0.30;0.30;;;7.40;99.90;;;;;;5048580;28;20237;-78
2023/03/20 08:50:37;;;;;;;0.30;0.30;;;7.40;99.90;;;;;;5042898;28;20205;-77
2023/03/20 08:53:02;;;;;;;0.20;0.20;;;7.40;99.90;;;;;;5044267;28;20658;-77
2023/03/20 08:55:28;;;;;;;0.30;0.30;;;7.50;99.90;;;;;;5043372;28;20457;-78
2023/03/20 08:57:56;;;;;;;0.30;0.30;;;7.40;99.90;;;;;;5048402;28;20195;-78
2023/03/20 09:00:22;;;;;;;0.30;0.30;;;7.50;99.90;;;;;;5036241;28;20261;-78
2023/03/20 09:02:48;;;;;;;0.30;0.30;;;7.50;99.90;;;;;;5035313;28;20549;-78
2023/03/20 09:05:14;;;;;;;0.20;0.20;;;7.50;99.90;;;;;;5070383;28;20524;-78
2023/03/20 09:07:39;;;;;;;0.30;0.30;;;7.50;99.90;;;;;;5049598;28;20191;-78
2023/03/20 09:10:05;;;;;;;0.23;0.23;;;7.40;99.90;;;;;;5043659;28;20196;-79
2023/03/20 09:12:31;;;;;;;0.30;0.30;;;7.50;99.90;;;;;;5045266;28;20187;-78
2023/03/20 09:14:58;;;;;;;0.30;0.30;;;7.50;99.90;;;;;;5034469;28;20495;-78
2023/03/20 09:17:23;;;;;;;0.30;0.30;;;7.50;99.90;;;;;;5044536;28;20438;-78
2023/03/20 09:19:49;;;;;;;0.20;0.20;;;7.50;99.90;;;;;;5031907;28;20485;-78
2023/03/20 09:22:16;;;;;;;0.30;0.30;;;7.50;99.90;;;;;;5045141;28;20271;-78
2023/03/20 09:24:43;;;;;;;0.20;0.20;;;7.50;99.90;;;;;;5047676;28;20609;-78
2023/03/20 09:27:09;;;;;;;0.20;0.20;;;7.60;99.90;;;;;;5045138;28;20449;-78
2023/03/20 09:29:34;;;;;;;0.30;0.30;;;7.60;99.90;;;;;;5035590;28;20778;-78
2023/03/20 09:32:00;;;;;;;0.30;0.30;;;7.60;99.90;;;;;;5036971;28;20188;-78
2023/03/20 09:34:26;;;;;;;0.20;0.20;;;7.60;99.90;;;;;;5041087;28;20194;-78
2023/03/20 09:36:51;;;;;;;0.30;0.30;;;7.60;99.90;;;;;;5047457;28;20190;-78
2023/03/20 09:39:17;;;;;;;0.30;0.30;;;7.70;99.90;;;;;;5048466;28;20765;-78
2023/03/20 09:41:47;;;;;;;0.30;0.30;;;7.70;99.90;;;;;;5034477;28;20312;-78
2023/03/20 09:44:39;;;;;;;0.30;0.30;;;7.80;99.90;;;;;;5044443;28;20448;-78
2023/03/20 09:47:32;;;;;;;0.20;0.20;;;7.70;99.90;;;;;;5041237;28;20508;-77
2023/03/20 09:50:10;;;;;;;0.20;0.20;;;7.60;99.90;;;;;;5035788;28;20819;-78
2023/03/20 09:52:44;;;;;;;0.30;0.30;;;7.70;99.90;;;;;;5042653;28;20449;-78
2023/03/20 09:55:15;;;;;;;0.20;0.20;;;7.80;99.90;;;;;;5044630;28;20475;-77
2023/03/20 09:57:44;;;;;;;0.27;0.27;;;7.70;99.90;;;;;;5032755;28;20450;-78
2023/03/20 10:00:17;;;;;;;0.30;0.30;;;7.80;99.90;;;;;;5037653;28;20587;-77
2023/03/20 10:02:51;;;;;;;0.20;0.20;;;7.80;99.90;;;;;;5052529;28;20456;-77
2023/03/20 10:05:46;;;;;;;0.30;0.30;;;7.80;99.90;;;;;;5037283;28;20540;-77
2023/03/20 10:08:17;;;;;;;0.30;0.30;;;7.80;99.90;;;;;;5038168;28;20442;-77
2023/03/20 10:10:49;;;;;;;0.30;0.30;;;7.80;99.90;;;;;;5040538;28;20460;-77
2023/03/20 10:13:38;;;;;;;0.30;0.30;;;7.80;99.90;;;;;;5043700;28;20451;-78
2023/03/20 10:16:09;;;;;;;0.23;0.23;;;7.80;99.90;;;;;;5045269;28;21274;-78
2023/03/20 10:18:39;;;;;;;0.30;0.30;;;7.80;99.90;;;;;;5039755;28;20830;-78
2023/03/20 10:21:19;;;;;;;0.20;0.20;;;7.80;99.90;;;;;;5045711;28;20495;-77
2023/03/20 10:24:01;;;;;;;0.20;0.20;;;7.80;99.90;;;;;;5055330;28;20437;-78
2023/03/20 10:26:29;;;;;;;0.30;0.30;;;7.80;99.90;;;;;;5047775;28;20438;-78
2023/03/20 10:29:14;;;;;;;0.20;0.20;;;7.80;99.90;;;;;;5037053;28;20429;-78
2023/03/20 10:32:06;;;;;;;0.30;0.30;;;7.80;99.90;;;;;;5035190;28;20512;-77
2023/03/20 10:34:53;;;;;;;0.20;0.20;;;7.80;99.90;;;;;;5037569;28;20473;-77
2023/03/20 10:37:40;;;;;;;0.20;0.20;;;7.80;99.90;;;;;;5032637;28;20445;-77
2023/03/20 10:40:23;;;;;;;0.30;0.30;;;7.50;99.90;;;;;;5048204;28;20515;-77
2023/03/20 10:42:52;;;;;;;0.23;0.23;;;7.70;99.90;;;;;;5060150;28;20461;-77
2023/03/20 10:45:26;;;;;;;0.30;0.30;;;7.80;99.90;;;;;;5056093;28;20433;-77
2023/03/20 10:47:53;;;;;;;0.20;0.20;;;7.80;99.90;;;;;;5046691;28;20510;-77
2023/03/20 10:50:26;;;;;;;0.20;0.20;;;7.90;99.90;;;;;;5037247;28;20507;-78
2023/03/20 10:52:54;;;;;;;0.20;0.20;;;7.80;99.90;;;;;;5033121;28;20442;-77
2023/03/20 10:55:27;;;;;;;0.30;0.30;;;7.60;99.90;;;;;;5038554;28;20454;-77
2023/03/20 10:58:11;;;;;;;0.30;0.30;;;7.80;99.90;;;;;;5042960;28;20523;-77
2023/03/20 11:00:37;;;;;;;0.20;0.20;;;7.80;99.90;;;;;;5047576;28;20473;-77
2023/03/20 11:03:04;;;;;;;0.30;0.30;;;7.70;99.90;;;;;;5048497;28;20453;-76
2023/03/20 11:05:35;;;;;;;0.20;0.20;;;7.70;99.90;;;;;;5049985;28;20285;-77
2023/03/20 11:08:11;;;;;;;0.27;0.27;;;7.70;99.90;;;;;;5039078;28;20450;-77
2023/03/20 11:10:39;;;;;;;0.20;0.20;;;7.70;99.90;;;;;;5043706;28;20954;-77
2023/03/20 11:13:23;;;;;;;0.30;0.30;;;7.80;99.90;;;;;;5035030;28;20448;-77
2023/03/20 11:15:52;;;;;;;0.20;0.20;;;7.60;99.90;;;;;;5032014;28;20455;-77
2023/03/20 11:18:18;;;;;;;0.20;0.20;;;7.90;99.90;;;;;;5033446;28;20481;-80
2023/03/20 11:20:50;;;;;;;0.30;0.30;;;7.90;99.90;;;;;;5040032;28;20493;-80
2023/03/20 11:23:22;;;;;;;0.30;0.30;;;8.00;99.90;;;;;;5037597;28;20196;-80
2023/03/20 11:25:56;;;;;;;0.30;0.30;;;8.00;99.90;;;;;;5038361;28;20445;-80
2023/03/20 11:28:37;;;;;;;0.20;0.20;;;8.00;99.90;;;;;;5036185;28;20469;-81
2023/03/20 11:31:29;;;;;;;0.20;0.20;;;8.10;99.90;;;;;;5042526;28;20448;-80
2023/03/20 11:34:13;;;;;;;0.20;0.20;;;8.00;99.90;;;;;;5047908;28;20532;-79
2023/03/20 11:36:44;;;;;;;0.20;0.20;;;8.00;99.90;;;;;;5043780;28;20493;-80
2023/03/20 11:39:14;;;;;;;0.20;0.20;;;8.00;99.90;;;;;;5034382;28;20434;-80
2023/03/20 11:41:50;;;;;;;0.20;0.20;;;8.00;99.90;;;;;;5046665;28;20495;-80
2023/03/20 11:44:26;;;;;;;0.20;0.20;;;8.00;99.90;;;;;;5040650;28;20531;-79
2023/03/20 11:47:04;;;;;;;0.20;0.20;;;8.00;99.90;;;;;;5051227;28;20445;-80
2023/03/20 11:49:31;;;;;;;0.30;0.30;;;8.00;99.90;;;;;;5047355;28;20452;-80
2023/03/20 11:52:02;;;;;;;0.20;0.20;;;7.90;99.90;;;;;;5046142;28;20441;-80
2023/03/20 11:54:29;;;;;;;0.20;0.20;;;7.90;99.90;;;;;;5047438;28;20445;-80
2023/03/20 11:56:57;;;;;;;0.30;0.30;;;7.90;99.90;;;;;;5049728;28;20445;-80
2023/03/20 11:59:29;;;;;;;0.30;0.30;;;7.90;99.90;;;;;;5041469;28;20449;-80
2023/03/20 12:01:56;;;;;;;0.20;0.20;;;7.90;99.90;;;;;;5066061;28;20489;-79
2023/03/20 12:04:36;;;;;;;0.30;0.30;;;7.80;99.90;;;;;;5043546;28;20452;-79
2023/03/20 12:07:26;;;;;;;0.20;0.20;;;7.90;99.90;;;;;;5038945;28;20507;-79
2023/03/20 12:10:13;;;;;;;0.20;0.20;;;8.00;99.90;;;;;;5042601;28;20444;-80
2023/03/20 12:12:45;;;;;;;0.30;0.30;;;8.10;99.90;;;;;;5035667;28;20452;-79
2023/03/20 12:15:25;;;;;;;0.20;0.20;;;8.10;99.90;;;;;;5050106;28;20433;-79
2023/03/20 12:17:55;;;;;;;0.30;0.30;;;8.10;99.90;;;;;;5049772;28;20472;-79
2023/03/20 12:20:45;;;;;;;0.20;0.20;;;8.10;99.90;;;;;;5040513;28;21041;-79
2023/03/20 12:23:28;;;;;;;0.30;0.30;;;8.10;99.90;;;;;;5044512;28;20445;-78
2023/03/20 12:26:06;;;;;;;0.20;0.20;;;8.30;99.90;;;;;;5042282;28;20477;-78
2023/03/20 12:28:46;;;;;;;0.20;0.20;;;8.40;99.90;;;;;;5042771;28;20484;-78
2023/03/20 12:31:42;;;;;;;0.20;0.20;;;8.50;99.90;;;;;;5032858;28;20545;-78
2023/03/20 12:34:17;;;;;;;0.20;0.20;;;8.60;99.90;;;;;;5034090;28;20524;-78
2023/03/20 12:36:48;;;;;;;0.20;0.20;;;8.50;99.90;;;;;;5048845;28;20436;-79
2023/03/20 12:39:19;;;;;;;0.20;0.20;;;8.40;99.90;;;;;;5043049;28;20453;-78
2023/03/20 12:42:08;;;;;;;0.20;0.20;;;8.50;99.90;;;;;;5040565;28;21014;-79
2023/03/20 12:45:08;;;;;;;0.20;0.20;;;8.60;99.90;;;;;;5041303;28;20964;-79
2023/03/20 12:47:55;;;;;;;0.30;0.30;;;8.70;99.90;;;;;;5061834;28;20503;-78
2023/03/20 12:50:41;;;;;;;0.20;0.20;;;8.70;99.90;;;;;;5043239;28;20445;-78
2023/03/20 12:53:26;;;;;;;0.30;0.30;;;8.70;99.90;;;;;;5033891;28;20478;-78
2023/03/20 12:56:00;;;;;;;0.20;0.20;;;8.70;99.90;;;;;;5047559;28;20435;-79
2023/03/20 12:58:47;;;;;;;0.27;0.27;;;8.80;99.90;;;;;;5046349;28;20502;-79
2023/03/20 13:01:38;;;;;;;0.20;0.20;;;8.80;99.90;;;;;;5045098;28;20480;-80
2023/03/20 13:04:40;;;;;;;0.20;0.20;;;8.90;99.90;;;;;;5047667;28;21209;-80
2023/03/20 13:07:44;;;;;;;0.20;0.20;;;9.10;99.90;;;;;;5039508;28;20444;-79
2023/03/20 13:10:20;;;;;;;0.20;0.20;;;9.10;99.90;;;;;;4995262;28;20439;-79
2023/03/20 13:12:48;;;;;;;0.20;0.20;;;9.10;99.90;;;;;;5025162;28;20540;-79
2023/03/20 13:15:53;;;;;;;0.20;0.20;;;9.10;99.90;;;;;;5034566;28;20425;-79
2023/03/20 13:18:54;;;;;;;0.20;0.20;;;9.20;99.90;;;;;;5041979;28;20469;-78